Time;durP1;ratioP1;P1;durP2;ratioP2;P2;SDS_P1;SDS_P2;PMS_P1;PMS_P2;Temp;Humidity;BMP_temperature;BMP_pressure;BME280_temperature;BME280_humidity;BME280_pressure;Samples;Min_cycle;Max_cycle;Signal;HPM_P1;HPM_P2
2022/04/07 00:02:02;;;;;;;1999.90;999.90;;;13.40;69.20;;;;;;4985244;28;20038;-92
2022/04/07 00:04:29;;;;;;;1999.90;999.90;;;13.50;69.30;;;;;;4976214;28;20046;-92
2022/04/07 00:06:55;;;;;;;1999.90;999.90;;;13.50;69.30;;;;;;4984457;28;20030;-93
2022/04/07 00:09:22;;;;;;;1999.90;999.90;;;13.50;69.20;;;;;;4991939;28;20041;-92
2022/04/07 00:11:48;;;;;;;1999.90;999.90;;;13.50;69.20;;;;;;4971414;28;20041;-92
2022/04/07 00:14:14;;;;;;;1999.90;999.90;;;13.50;69.30;;;;;;5000773;28;20049;-93
2022/04/07 00:16:40;;;;;;;1999.90;999.90;;;13.50;69.30;;;;;;4984416;28;20034;-92
2022/04/07 00:19:07;;;;;;;1999.90;999.90;;;13.50;69.30;;;;;;4980916;28;20041;-93
2022/04/07 00:21:36;;;;;;;1999.90;999.90;;;13.50;69.30;;;;;;4986053;28;20056;-93
2022/04/07 00:24:03;;;;;;;1999.90;999.90;;;13.60;69.40;;;;;;4998683;28;20042;-93
2022/04/07 00:26:29;;;;;;;1999.90;999.90;;;13.60;69.40;;;;;;5000976;28;20048;-92
2022/04/07 00:28:56;;;;;;;1999.90;999.90;;;13.60;69.50;;;;;;4977326;28;20368;-92
2022/04/07 00:31:22;;;;;;;1999.90;999.90;;;13.60;69.50;;;;;;4977788;28;20398;-93
2022/04/07 00:33:48;;;;;;;1999.90;999.90;;;13.60;69.60;;;;;;4997187;28;20390;-93
2022/04/07 00:36:14;;;;;;;1999.90;999.90;;;13.50;69.70;;;;;;4997022;28;20038;-92
2022/04/07 00:38:40;;;;;;;1999.90;999.90;;;13.50;69.80;;;;;;4985733;28;20060;-93
2022/04/07 00:41:06;;;;;;;1999.90;999.90;;;13.50;69.80;;;;;;4986033;28;20047;-93
2022/04/07 00:43:33;;;;;;;1999.90;999.90;;;13.50;69.90;;;;;;4999624;28;20050;-93
2022/04/07 00:46:00;;;;;;;1999.90;999.90;;;13.50;70.00;;;;;;4979045;28;20045;-94
2022/04/07 00:48:26;;;;;;;1999.90;999.90;;;13.50;70.00;;;;;;4986000;28;20040;-93
2022/04/07 00:50:56;;;;;;;1999.90;999.90;;;13.50;70.00;;;;;;4985392;28;20034;-93
2022/04/07 00:53:23;;;;;;;1999.90;999.90;;;13.50;70.10;;;;;;4997109;28;20053;-93
2022/04/07 00:55:53;;;;;;;1999.90;999.90;;;13.50;70.20;;;;;;5000424;28;20041;-93
2022/04/07 00:58:19;;;;;;;1999.90;999.90;;;13.50;70.20;;;;;;4986892;28;20041;-94
2022/04/07 01:00:48;;;;;;;1999.90;999.90;;;13.50;70.30;;;;;;4983629;28;20034;-93
2022/04/07 01:03:14;;;;;;;1999.90;999.90;;;13.50;70.30;;;;;;4985111;28;20061;-94
2022/04/07 01:05:41;;;;;;;1999.90;999.90;;;13.50;70.40;;;;;;5002252;28;20045;-93
2022/04/07 01:08:08;;;;;;;1999.90;999.90;;;13.50;70.40;;;;;;4987056;28;20493;-94
2022/04/07 01:10:34;;;;;;;1999.90;999.90;;;13.50;70.40;;;;;;4984109;28;20402;-93
2022/04/07 01:13:00;;;;;;;1999.90;999.90;;;13.50;70.60;;;;;;4984798;28;20495;-93
2022/04/07 01:15:26;;;;;;;1999.90;999.90;;;13.50;70.70;;;;;;4989720;28;20040;-93
2022/04/07 01:17:52;;;;;;;1999.90;999.90;;;13.50;70.70;;;;;;5005119;28;20067;-93
2022/04/07 01:20:19;;;;;;;1999.90;999.90;;;13.50;70.70;;;;;;5000708;28;20045;-93
2022/04/07 01:22:45;;;;;;;1999.90;999.90;;;13.50;70.80;;;;;;4997035;28;20506;-93
2022/04/07 01:25:12;;;;;;;1999.90;999.90;;;13.50;70.80;;;;;;4975970;28;20046;-93
2022/04/07 01:27:39;;;;;;;1999.90;999.90;;;13.50;70.80;;;;;;5007117;28;20045;-94
2022/04/07 01:30:08;;;;;;;1999.90;999.90;;;13.50;70.80;;;;;;5004951;28;20060;-93
2022/04/07 01:32:46;;;;;;;1999.90;999.90;;;13.50;70.80;;;;;;4997972;28;20506;-93
2022/04/07 01:35:13;;;;;;;1999.90;999.90;;;13.50;70.90;;;;;;4997518;28;20037;-94
2022/04/07 01:37:40;;;;;;;1999.90;999.90;;;13.50;70.90;;;;;;5000412;28;20037;-93
2022/04/07 01:40:08;;;;;;;1999.90;999.90;;;13.50;71.00;;;;;;4982465;28;20053;-94
2022/04/07 01:42:35;;;;;;;1999.90;999.90;;;13.50;71.00;;;;;;4983902;28;20043;-93
2022/04/07 01:45:02;;;;;;;1999.90;999.90;;;13.50;71.00;;;;;;4977000;28;20045;-92
2022/04/07 01:47:28;;;;;;;1999.90;999.90;;;13.50;71.00;;;;;;4974915;28;20030;-90
2022/04/07 01:50:01;;;;;;;1999.90;999.90;;;13.50;71.10;;;;;;4997046;28;20398;-91
2022/04/07 01:52:27;;;;;;;1999.90;999.90;;;13.50;71.10;;;;;;4980787;28;20435;-92
2022/04/07 01:54:53;;;;;;;1999.90;999.90;;;13.50;71.30;;;;;;4980318;28;20050;-92
2022/04/07 01:57:23;;;;;;;1999.90;999.90;;;13.40;71.40;;;;;;4982983;28;20033;-91
2022/04/07 01:59:52;;;;;;;1999.90;999.90;;;13.40;71.50;;;;;;4997925;28;20045;-92
2022/04/07 02:02:19;;;;;;;1999.90;999.90;;;13.40;71.50;;;;;;4984860;28;20037;-91
2022/04/07 02:04:59;;;;;;;1999.90;999.90;;;13.40;71.60;;;;;;5003814;28;20061;-92
2022/04/07 02:07:34;;;;;;;1999.90;999.90;;;13.40;71.60;;;;;;5007914;28;20052;-92
2022/04/07 02:10:00;;;;;;;1999.90;999.90;;;13.40;71.60;;;;;;4993465;28;20045;-93
2022/04/07 02:12:27;;;;;;;1999.90;999.90;;;13.40;71.60;;;;;;5007139;28;20041;-93
2022/04/07 02:14:53;;;;;;;1999.90;999.90;;;13.40;71.70;;;;;;4996111;28;20052;-93
2022/04/07 02:17:23;;;;;;;1999.90;999.90;;;13.40;71.70;;;;;;5008176;28;20037;-93
2022/04/07 02:19:50;;;;;;;1999.90;999.90;;;13.40;71.70;;;;;;4993275;28;20068;-93
2022/04/07 02:22:16;;;;;;;1999.90;999.90;;;13.40;71.70;;;;;;4984930;28;20490;-94
2022/04/07 02:24:43;;;;;;;1999.90;999.90;;;13.40;71.70;;;;;;4989617;28;20050;-93
2022/04/07 02:27:09;;;;;;;1999.90;999.90;;;13.40;71.80;;;;;;5007112;28;20038;-93
2022/04/07 02:29:35;;;;;;;1999.90;999.90;;;13.40;71.80;;;;;;5001529;28;20034;-93
2022/04/07 02:32:02;;;;;;;1999.90;999.90;;;13.40;71.80;;;;;;5002151;28;20036;-93
2022/04/07 02:34:29;;;;;;;1999.90;999.90;;;13.40;71.80;;;;;;4985988;28;20056;-92
2022/04/07 02:36:55;;;;;;;1999.90;999.90;;;13.40;71.90;;;;;;4979504;28;20033;-93
2022/04/07 02:39:21;;;;;;;1999.90;999.90;;;13.40;71.90;;;;;;4999792;28;20045;-93
2022/04/07 02:41:47;;;;;;;1999.90;999.90;;;13.40;72.10;;;;;;5003309;28;20515;-94
2022/04/07 02:44:13;;;;;;;1999.90;999.90;;;13.40;72.10;;;;;;4995091;28;20041;-93
2022/04/07 02:46:40;;;;;;;1999.90;999.90;;;13.40;72.20;;;;;;4975257;28;20037;-93
2022/04/07 02:49:06;;;;;;;1999.90;999.90;;;13.30;72.20;;;;;;4978418;28;20053;-92
2022/04/07 02:51:32;;;;;;;1999.90;999.90;;;13.30;72.30;;;;;;4980185;28;20038;-93
2022/04/07 02:53:58;;;;;;;1999.90;999.90;;;13.30;72.40;;;;;;4984143;28;20052;-92
2022/04/07 02:56:25;;;;;;;1999.90;999.90;;;13.30;72.50;;;;;;4982389;28;20033;-94
2022/04/07 02:58:51;;;;;;;1999.90;999.90;;;13.30;72.50;;;;;;4988202;28;20068;-93
2022/04/07 03:01:18;;;;;;;1999.90;999.90;;;13.30;72.50;;;;;;4982781;28;20034;-93
2022/04/07 03:03:44;;;;;;;1999.90;999.90;;;13.30;72.60;;;;;;4987842;28;20057;-92
2022/04/07 03:06:10;;;;;;;1999.90;999.90;;;13.30;72.60;;;;;;4976390;28;20041;-94
2022/04/07 03:08:37;;;;;;;1999.90;999.90;;;13.30;72.60;;;;;;4996525;28;20038;-91
2022/04/07 03:11:03;;;;;;;1999.90;999.90;;;13.30;72.60;;;;;;4972836;28;20512;-92
2022/04/07 03:13:29;;;;;;;1999.90;999.90;;;13.30;72.60;;;;;;4982407;28;20038;-92
2022/04/07 03:15:56;;;;;;;1999.90;999.90;;;13.20;72.60;;;;;;4983194;28;20033;-93
2022/04/07 03:18:22;;;;;;;1999.90;999.90;;;13.20;72.60;;;;;;4993194;28;20037;-93
2022/04/07 03:20:49;;;;;;;1999.90;999.90;;;13.20;72.60;;;;;;4998289;28;20163;-92
2022/04/07 03:23:15;;;;;;;1999.90;999.90;;;13.20;72.60;;;;;;4976554;28;20402;-93
2022/04/07 03:25:41;;;;;;;1999.90;999.90;;;13.20;72.70;;;;;;4995674;28;20065;-91
2022/04/07 03:28:08;;;;;;;1999.90;999.90;;;13.20;72.70;;;;;;4982518;28;20467;-92
2022/04/07 03:30:34;;;;;;;1999.90;999.90;;;13.20;72.70;;;;;;4992440;28;20053;-92
2022/04/07 03:33:02;;;;;;;1999.90;999.90;;;13.20;72.80;;;;;;4963186;28;20054;-93
2022/04/07 03:35:28;;;;;;;1999.90;999.90;;;13.10;72.80;;;;;;4989845;28;20064;-92
2022/04/07 03:37:55;;;;;;;1999.90;999.90;;;13.10;72.90;;;;;;4980683;28;20037;-93
2022/04/07 03:40:22;;;;;;;1999.90;999.90;;;13.20;72.80;;;;;;4999060;28;20041;-93
2022/04/07 03:42:48;;;;;;;1999.90;999.90;;;13.10;72.70;;;;;;4998004;28;20565;-94
2022/04/07 03:45:14;;;;;;;1999.90;999.90;;;13.10;72.80;;;;;;4993998;28;20058;-93
2022/04/07 03:47:40;;;;;;;1999.90;999.90;;;13.10;72.70;;;;;;4981272;28;20477;-81
2022/04/07 03:50:06;;;;;;;1999.90;999.90;;;13.10;72.70;;;;;;5010353;28;20033;-82
2022/04/07 03:52:33;;;;;;;1999.90;999.90;;;13.10;72.70;;;;;;5029706;28;20048;-82
2022/04/07 03:54:59;;;;;;;1999.90;999.90;;;13.10;72.80;;;;;;5009075;28;20037;-82
2022/04/07 03:57:25;;;;;;;1999.90;999.90;;;13.10;72.90;;;;;;5012949;28;20478;-80
2022/04/07 03:59:52;;;;;;;1999.90;999.90;;;13.10;73.60;;;;;;5028686;28;20041;-81
2022/04/07 04:02:18;;;;;;;1999.90;999.90;;;13.10;72.90;;;;;;5010437;28;20041;-80
2022/04/07 04:04:44;;;;;;;1999.90;999.90;;;13.10;72.90;;;;;;4995848;28;20054;-81
2022/04/07 04:07:10;;;;;;;1999.90;999.90;;;13.10;72.90;;;;;;5029724;28;20038;-81
2022/04/07 04:09:36;;;;;;;1999.90;999.90;;;13.10;72.90;;;;;;5009595;28;20042;-81
2022/04/07 04:12:03;;;;;;;1999.90;999.90;;;13.10;72.90;;;;;;5011307;28;20034;-81
2022/04/07 04:14:29;;;;;;;1999.90;999.90;;;13.10;72.90;;;;;;5012288;28;20505;-91
2022/04/07 04:16:56;;;;;;;1999.90;999.90;;;13.10;73.00;;;;;;4977470;28;20493;-87
2022/04/07 04:19:22;;;;;;;1999.90;999.90;;;13.10;72.90;;;;;;5013832;28;20041;-88
2022/04/07 04:21:51;;;;;;;1999.90;999.90;;;13.10;72.90;;;;;;4991292;28;20049;-88
2022/04/07 04:24:17;;;;;;;1999.90;999.90;;;13.10;72.90;;;;;;4995360;28;20036;-88
2022/04/07 04:26:43;;;;;;;1999.90;999.90;;;13.10;72.90;;;;;;5010721;28;20029;-88
2022/04/07 04:29:09;;;;;;;1999.90;999.90;;;13.10;73.00;;;;;;5009246;28;20048;-89
2022/04/07 04:31:35;;;;;;;1999.90;999.90;;;13.10;72.90;;;;;;4990572;28;20037;-90
2022/04/07 04:34:01;;;;;;;1999.90;999.90;;;13.10;72.90;;;;;;4998695;28;20385;-90
2022/04/07 04:36:28;;;;;;;1999.90;999.90;;;13.10;72.90;;;;;;5000909;28;20041;-90
2022/04/07 04:38:54;;;;;;;1999.90;999.90;;;13.20;73.80;;;;;;4999954;28;20037;-89
2022/04/07 04:41:21;;;;;;;1999.90;999.90;;;13.20;73.10;;;;;;4998793;28;20466;-89
2022/04/07 04:43:47;;;;;;;1999.90;999.90;;;13.20;73.10;;;;;;4997045;28;20041;-91
2022/04/07 04:46:13;;;;;;;1999.90;999.90;;;13.20;73.20;;;;;;4997887;28;20038;-91
2022/04/07 04:48:39;;;;;;;1999.90;999.90;;;13.20;73.20;;;;;;4972432;28;20045;-91
2022/04/07 04:51:06;;;;;;;1999.90;999.90;;;13.20;73.20;;;;;;4975385;28;20038;-90
2022/04/07 04:53:34;;;;;;;1999.90;999.90;;;13.20;73.20;;;;;;4981176;28;20049;-93
2022/04/07 04:56:00;;;;;;;1999.90;999.90;;;13.20;73.20;;;;;;4982029;28;20033;-91
2022/04/07 04:58:27;;;;;;;1999.90;999.90;;;13.20;73.30;;;;;;5002148;28;20022;-92
2022/04/07 05:00:53;;;;;;;1999.90;999.90;;;13.20;73.40;;;;;;4980372;28;20038;-91
2022/04/07 05:03:21;;;;;;;1999.90;999.90;;;13.20;73.50;;;;;;4984766;28;20394;-92
2022/04/07 05:05:48;;;;;;;1999.90;999.90;;;13.20;73.50;;;;;;4985248;28;20460;-92
2022/04/07 05:08:14;;;;;;;1999.90;999.90;;;13.20;73.60;;;;;;4989128;28;20041;-91
2022/04/07 05:10:40;;;;;;;1999.90;999.90;;;13.10;73.60;;;;;;4978740;28;20052;-91
2022/04/07 05:13:06;;;;;;;1999.90;999.90;;;13.10;73.60;;;;;;4975017;28;20069;-92
2022/04/07 05:15:35;;;;;;;1999.90;999.90;;;13.10;73.70;;;;;;4985682;28;20485;-92
2022/04/07 05:18:02;;;;;;;1999.90;999.90;;;13.10;73.70;;;;;;4988442;28;20037;-92
2022/04/07 05:20:28;;;;;;;1999.90;999.90;;;13.10;73.70;;;;;;4983246;28;20120;-91
2022/04/07 05:22:54;;;;;;;1999.90;999.90;;;13.10;73.80;;;;;;4984465;28;20046;-90
2022/04/07 05:25:20;;;;;;;1999.90;999.90;;;13.10;73.80;;;;;;4981349;28;20415;-91
2022/04/07 05:27:46;;;;;;;1999.90;999.90;;;13.20;73.90;;;;;;4982192;28;20503;-92
2022/04/07 05:30:15;;;;;;;1999.90;999.90;;;13.10;73.90;;;;;;4974272;28;20057;-92
2022/04/07 05:32:45;;;;;;;1999.90;999.90;;;13.10;73.90;;;;;;4981849;28;20048;-92
2022/04/07 05:35:12;;;;;;;1999.90;999.90;;;13.10;74.70;;;;;;4984096;28;20402;-92
2022/04/07 05:37:38;;;;;;;1999.90;999.90;;;13.10;74.00;;;;;;4985495;28;20505;-92
2022/04/07 05:40:12;;;;;;;1999.90;999.90;;;13.20;74.00;;;;;;4972580;28;20038;-92
2022/04/07 05:42:38;;;;;;;1999.90;999.90;;;13.10;74.00;;;;;;4987841;28;20046;-92
2022/04/07 05:45:08;;;;;;;1999.90;999.90;;;13.20;73.90;;;;;;4973723;28;20041;-92
2022/04/07 05:47:39;;;;;;;1999.90;999.90;;;13.20;74.00;;;;;;4985145;28;20046;-91
2022/04/07 05:50:06;;;;;;;1999.90;999.90;;;13.20;74.10;;;;;;4984758;28;20044;-93
2022/04/07 05:52:32;;;;;;;1999.90;999.90;;;13.20;74.10;;;;;;4981542;28;20045;-91
2022/04/07 05:54:58;;;;;;;1999.90;999.90;;;13.20;74.10;;;;;;4981828;28;20034;-91
2022/04/07 05:57:30;;;;;;;1999.90;999.90;;;13.20;74.10;;;;;;4974432;28;20042;-91
2022/04/07 06:00:07;;;;;;;1999.90;999.90;;;13.20;74.10;;;;;;4979137;28;20044;-93
2022/04/07 06:02:33;;;;;;;1999.90;999.90;;;13.20;74.10;;;;;;4982983;28;20405;-92
2022/04/07 06:04:59;;;;;;;1999.90;999.90;;;13.20;74.10;;;;;;4983383;28;20041;-91
2022/04/07 06:07:28;;;;;;;1999.90;999.90;;;13.30;74.20;;;;;;5016533;28;20067;-92
2022/04/07 06:09:54;;;;;;;1999.90;999.90;;;13.20;74.20;;;;;;4980308;28;20026;-92
2022/04/07 06:12:23;;;;;;;1999.90;999.90;;;13.30;74.30;;;;;;4979921;28;20403;-92
2022/04/07 06:14:49;;;;;;;1999.90;999.90;;;13.30;74.40;;;;;;4998125;28;20506;-86
2022/04/07 06:17:15;;;;;;;1999.90;999.90;;;13.30;74.30;;;;;;5015247;28;20471;-91
2022/04/07 06:19:42;;;;;;;1999.90;999.90;;;13.30;74.30;;;;;;4978333;28;20046;-91
2022/04/07 06:22:08;;;;;;;1999.90;999.90;;;13.30;74.30;;;;;;4998431;28;20092;-91
2022/04/07 06:24:34;;;;;;;1999.90;999.90;;;13.30;74.20;;;;;;4977807;28;20061;-89
2022/04/07 06:27:00;;;;;;;1999.90;999.90;;;13.40;74.30;;;;;;5016237;28;20029;-93
2022/04/07 06:29:26;;;;;;;1999.90;999.90;;;13.40;74.30;;;;;;4985939;28;20041;-91
2022/04/07 06:31:53;;;;;;;1999.90;999.90;;;13.40;74.40;;;;;;4980492;28;20382;-89
2022/04/07 06:34:20;;;;;;;1999.90;999.90;;;13.40;74.40;;;;;;4981675;28;20038;-90
2022/04/07 06:37:00;;;;;;;1999.90;999.90;;;13.40;74.40;;;;;;4982354;28;20046;-93
2022/04/07 06:39:26;;;;;;;1999.90;999.90;;;13.40;74.40;;;;;;4990502;28;20041;-86
2022/04/07 06:41:52;;;;;;;1999.90;999.90;;;13.40;74.40;;;;;;4993281;28;20049;-86
2022/04/07 06:44:21;;;;;;;1999.90;999.90;;;13.40;74.40;;;;;;5009759;28;20466;-88
2022/04/07 06:46:47;;;;;;;1999.90;999.90;;;13.50;74.40;;;;;;4964476;28;20041;-86
2022/04/07 06:49:13;;;;;;;1999.90;999.90;;;13.50;74.50;;;;;;5032448;28;20026;-87
2022/04/07 06:51:39;;;;;;;1999.90;999.90;;;13.50;74.50;;;;;;4994198;28;20043;-88
2022/04/07 06:54:05;;;;;;;1999.90;999.90;;;13.50;74.50;;;;;;4977249;28;20042;-89
2022/04/07 06:56:32;;;;;;;1999.90;999.90;;;13.50;74.50;;;;;;4955660;28;20043;-92
2022/04/07 06:58:59;;;;;;;1999.90;999.90;;;13.50;74.60;;;;;;4959651;28;20618;-89
2022/04/07 07:01:25;;;;;;;1999.90;999.90;;;13.60;74.60;;;;;;4940011;28;20421;-90
2022/04/07 07:03:51;;;;;;;1999.90;999.90;;;13.60;74.60;;;;;;4952547;28;20035;-89
2022/04/07 07:06:24;;;;;;;1999.90;999.90;;;13.60;74.60;;;;;;4953532;28;20047;-95
2022/04/07 07:08:50;;;;;;;1999.90;999.90;;;13.60;74.70;;;;;;4965665;28;20031;-87
2022/04/07 07:11:16;;;;;;;1999.90;999.90;;;13.70;74.70;;;;;;4957590;28;20039;-86
2022/04/07 07:13:42;;;;;;;1999.90;999.90;;;13.70;74.80;;;;;;4970363;28;20229;-84
2022/04/07 07:16:08;;;;;;;1999.90;999.90;;;13.70;74.80;;;;;;4964902;28;20042;-85
2022/04/07 07:18:35;;;;;;;1999.90;999.90;;;13.70;74.80;;;;;;4978136;28;20039;-87
2022/04/07 07:21:01;;;;;;;1999.90;999.90;;;13.70;74.80;;;;;;4949130;28;20034;-87
2022/04/07 07:23:27;;;;;;;1999.90;999.90;;;13.80;74.90;;;;;;4949339;28;20054;-83
2022/04/07 07:25:53;;;;;;;1999.90;999.90;;;13.80;74.90;;;;;;4965637;28;20058;-83
2022/04/07 07:28:20;;;;;;;1999.90;999.90;;;13.80;74.90;;;;;;4963543;28;20027;-84
2022/04/07 07:30:46;;;;;;;1999.90;999.90;;;13.90;74.90;;;;;;4958575;28;20030;-81
2022/04/07 07:33:12;;;;;;;1999.90;999.90;;;13.90;74.90;;;;;;5007062;28;20029;-82
2022/04/07 07:35:38;;;;;;;1999.90;999.90;;;13.90;74.90;;;;;;5009162;28;20029;-84
2022/04/07 07:38:04;;;;;;;1999.90;999.90;;;13.90;74.80;;;;;;5007686;28;20033;-81
2022/04/07 07:40:32;;;;;;;1999.90;999.90;;;13.90;74.90;;;;;;4993998;28;20105;-82
2022/04/07 07:43:00;;;;;;;1999.90;999.90;;;13.90;74.90;;;;;;4991347;28;20452;-81
2022/04/07 07:45:27;;;;;;;1999.90;999.90;;;14.00;75.10;;;;;;5006445;28;20406;-81
2022/04/07 07:47:53;;;;;;;1999.90;999.90;;;14.00;75.10;;;;;;5007007;28;20038;-81
2022/04/07 07:50:20;;;;;;;1999.90;999.90;;;14.00;75.00;;;;;;5007681;28;20035;-82
2022/04/07 07:52:46;;;;;;;1999.90;999.90;;;14.10;75.10;;;;;;5010770;28;20510;-80
2022/04/07 07:55:13;;;;;;;1999.90;999.90;;;14.10;75.10;;;;;;5009613;28;20472;-78
2022/04/07 07:57:39;;;;;;;1999.90;999.90;;;14.10;75.10;;;;;;5005750;28;20045;-79
2022/04/07 08:00:07;;;;;;;1999.90;999.90;;;14.20;75.10;;;;;;5008180;28;20030;-78
2022/04/07 08:02:34;;;;;;;1999.90;999.90;;;14.20;75.10;;;;;;4987098;28;20380;-79
2022/04/07 08:05:01;;;;;;;1999.90;999.90;;;14.30;75.10;;;;;;5007685;28;20046;-78
2022/04/07 08:07:27;;;;;;;1999.90;999.90;;;14.30;75.10;;;;;;4993023;28;20042;-77
2022/04/07 08:09:57;;;;;;;1999.90;999.90;;;14.40;75.10;;;;;;5012015;28;20437;-77
2022/04/07 08:12:26;;;;;;;1999.90;999.90;;;14.40;75.00;;;;;;4989971;28;20406;-78
2022/04/07 08:14:52;;;;;;;1999.90;999.90;;;14.40;75.00;;;;;;5004339;28;20040;-79
2022/04/07 08:17:19;;;;;;;1999.90;999.90;;;14.40;75.00;;;;;;5010511;28;20042;-80
2022/04/07 08:19:45;;;;;;;1999.90;999.90;;;14.50;75.20;;;;;;5013228;28;20041;-85
2022/04/07 08:22:11;;;;;;;1999.90;999.90;;;14.50;75.20;;;;;;5004297;28;20046;-80
2022/04/07 08:24:37;;;;;;;1999.90;999.90;;;14.50;75.20;;;;;;5007028;28;20037;-81
2022/04/07 08:27:07;;;;;;;1999.90;999.90;;;14.50;75.30;;;;;;5002213;28;20046;-81
2022/04/07 08:29:33;;;;;;;1999.90;999.90;;;14.50;75.30;;;;;;4978902;28;20037;-81
2022/04/07 08:32:00;;;;;;;1999.90;999.90;;;14.50;75.40;;;;;;4994730;28;20379;-81
2022/04/07 08:34:26;;;;;;;1999.90;999.90;;;14.50;75.40;;;;;;4998307;28;20395;-81
2022/04/07 08:36:52;;;;;;;1999.90;999.90;;;14.60;75.40;;;;;;5001112;28;20057;-82
2022/04/07 08:39:19;;;;;;;1999.90;999.90;;;14.60;75.40;;;;;;5022772;28;20029;-82
2022/04/07 08:41:45;;;;;;;1999.90;999.90;;;14.70;75.40;;;;;;5022914;28;20376;-84
2022/04/07 08:44:12;;;;;;;1999.90;999.90;;;14.70;75.30;;;;;;5005378;28;20071;-87
2022/04/07 08:46:39;;;;;;;1999.90;999.90;;;14.80;75.20;;;;;;4992788;28;20052;-88
2022/04/07 08:49:06;;;;;;;1999.90;999.90;;;14.90;75.10;;;;;;5011927;28;20378;-84
2022/04/07 08:51:32;;;;;;;1999.90;999.90;;;14.90;75.00;;;;;;5027354;28;20032;-84
2022/04/07 08:53:59;;;;;;;1999.90;999.90;;;15.00;75.00;;;;;;5031814;28;20048;-83
2022/04/07 08:56:26;;;;;;;1999.90;999.90;;;15.00;74.90;;;;;;5029084;28;20018;-84
2022/04/07 08:58:53;;;;;;;1999.90;999.90;;;15.10;74.80;;;;;;5013357;28;20029;-83
2022/04/07 09:01:20;;;;;;;1999.90;999.90;;;15.10;74.80;;;;;;5013789;28;20029;-84
2022/04/07 09:03:46;;;;;;;1999.90;999.90;;;15.20;74.80;;;;;;5031600;28;20029;-85
2022/04/07 09:06:14;;;;;;;1999.90;999.90;;;15.20;74.70;;;;;;5014105;28;20486;-82
2022/04/07 09:08:40;;;;;;;1999.90;999.90;;;15.20;74.70;;;;;;5031731;28;20018;-83
2022/04/07 09:11:08;;;;;;;1999.90;999.90;;;15.20;74.60;;;;;;4985748;28;20402;-88
2022/04/07 09:13:42;;;;;;;1999.90;999.90;;;15.30;74.60;;;;;;5018839;28;20037;-86
2022/04/07 09:16:13;;;;;;;1999.90;999.90;;;15.30;74.60;;;;;;5025164;28;20052;-88
2022/04/07 09:18:47;;;;;;;1999.90;999.90;;;15.20;74.60;;;;;;5016576;28;20041;-89
2022/04/07 09:21:24;;;;;;;1999.90;999.90;;;15.20;74.70;;;;;;5011729;28;20033;-85
2022/04/07 09:23:52;;;;;;;1999.90;999.90;;;15.20;74.90;;;;;;5030982;28;20502;-85
2022/04/07 09:26:18;;;;;;;1999.90;999.90;;;15.10;74.90;;;;;;5005005;28;20054;-86
2022/04/07 09:28:45;;;;;;;1999.90;999.90;;;15.10;75.00;;;;;;4991955;28;20516;-85
2022/04/07 09:31:12;;;;;;;1999.90;999.90;;;15.10;75.00;;;;;;4993291;28;20049;-85
2022/04/07 09:33:38;;;;;;;1999.90;999.90;;;15.00;75.00;;;;;;5025600;28;20040;-81
2022/04/07 09:36:12;;;;;;;1999.90;999.90;;;15.00;75.00;;;;;;5024889;28;20395;-83
2022/04/07 09:38:38;;;;;;;1999.90;999.90;;;15.00;75.10;;;;;;5016454;28;20478;-83
2022/04/07 09:41:12;;;;;;;1999.90;999.90;;;14.90;75.00;;;;;;5026114;28;20029;-86
2022/04/07 09:43:48;;;;;;;1999.90;999.90;;;15.00;75.10;;;;;;5038523;28;20044;-85
2022/04/07 09:46:16;;;;;;;1999.90;999.90;;;14.90;75.10;;;;;;5006356;28;20049;-84
2022/04/07 09:49:05;;;;;;;1999.90;999.90;;;15.00;75.10;;;;;;5005021;28;20040;-85
2022/04/07 09:51:37;;;;;;;1999.90;999.90;;;15.00;75.00;;;;;;5025852;28;20731;-85
2022/04/07 09:54:03;;;;;;;1999.90;999.90;;;15.00;75.00;;;;;;5006533;28;20042;-85
2022/04/07 09:56:29;;;;;;;1999.90;999.90;;;15.10;75.00;;;;;;5027546;28;20036;-86
2022/04/07 09:58:56;;;;;;;1999.90;999.90;;;15.10;74.80;;;;;;5010089;28;20048;-89
2022/04/07 10:01:22;;;;;;;1999.90;999.90;;;15.20;74.90;;;;;;5033872;28;20508;-89
2022/04/07 10:03:52;;;;;;;1999.90;999.90;;;15.20;74.80;;;;;;5004934;28;20048;-88
2022/04/07 10:06:18;;;;;;;1999.90;999.90;;;15.20;74.70;;;;;;5027274;28;20066;-87
2022/04/07 10:08:49;;;;;;;1999.90;999.90;;;15.20;74.60;;;;;;5035887;28;20556;-87
2022/04/07 10:11:18;;;;;;;1999.90;999.90;;;15.20;74.60;;;;;;4994260;28;20064;-85
2022/04/07 10:13:45;;;;;;;1999.90;999.90;;;15.30;74.60;;;;;;5012466;28;20506;-86
2022/04/07 10:16:15;;;;;;;1999.90;999.90;;;15.30;74.60;;;;;;5019426;28;20034;-83
2022/04/07 10:18:46;;;;;;;1999.90;999.90;;;15.20;74.50;;;;;;5024383;28;20021;-84
2022/04/07 10:21:17;;;;;;;;;;;15.20;74.60;;;;;;5027137;28;20025;-81
2022/04/07 10:24:19;;;;;;;1999.90;999.90;;;15.20;74.60;;;;;;5025166;28;19916;-83
2022/04/07 10:26:45;;;;;;;1999.90;999.90;;;15.20;74.60;;;;;;4969651;28;20046;-87
2022/04/07 10:29:21;;;;;;;1999.90;999.90;;;15.20;74.60;;;;;;4973191;28;20053;-84
2022/04/07 10:32:09;;;;;;;1999.90;999.90;;;15.20;74.50;;;;;;4959234;28;20049;-85
2022/04/07 10:34:35;;;;;;;1999.90;999.90;;;15.30;74.50;;;;;;4980754;28;20042;-82
2022/04/07 10:37:07;;;;;;;1999.90;999.90;;;15.30;74.50;;;;;;4976289;28;20042;-89
2022/04/07 10:39:33;;;;;;;1999.90;999.90;;;15.20;74.50;;;;;;4975400;28;20034;-86
2022/04/07 10:42:00;;;;;;;1999.90;999.90;;;15.30;74.50;;;;;;4977722;28;20038;-83
2022/04/07 10:44:27;;;;;;;1999.90;999.90;;;15.30;74.40;;;;;;4981834;28;20058;-85
2022/04/07 10:47:03;;;;;;;1999.90;999.90;;;15.30;74.30;;;;;;4981613;28;20049;-86
2022/04/07 10:49:29;;;;;;;1999.90;999.90;;;15.40;74.40;;;;;;4976490;28;20050;-87
2022/04/07 10:51:57;;;;;;;1999.90;999.90;;;15.40;74.30;;;;;;4986129;28;20424;-86
2022/04/07 10:54:24;;;;;;;1999.90;999.90;;;15.40;74.30;;;;;;4974152;28;20415;-87
2022/04/07 10:56:56;;;;;;;1999.90;999.90;;;15.40;74.20;;;;;;4945822;28;20046;-86
2022/04/07 10:59:27;;;;;;;1999.90;999.90;;;15.50;74.30;;;;;;4955247;28;20046;-85
2022/04/07 11:01:56;;;;;;;;;;;15.50;74.20;;;;;;4986505;28;20506;-85
2022/04/07 11:04:22;;;;;;;1999.90;999.90;;;15.50;74.20;;;;;;5022506;28;19916;-85
2022/04/07 11:07:15;;;;;;;1999.90;999.90;;;15.60;74.10;;;;;;5021285;28;20045;-83
2022/04/07 11:09:52;;;;;;;1999.90;999.90;;;15.60;73.90;;;;;;5026425;28;20041;-83
2022/04/07 11:12:24;;;;;;;1999.90;999.90;;;15.70;73.80;;;;;;5027766;28;20048;-85
2022/04/07 11:14:51;;;;;;;1999.90;999.90;;;15.80;73.70;;;;;;5026333;28;20029;-85
2022/04/07 11:17:45;;;;;;;1999.90;999.90;;;15.90;73.60;;;;;;5009978;28;20033;-86
2022/04/07 11:20:25;;;;;;;1999.90;999.90;;;15.90;73.60;;;;;;5022423;28;20399;-86
2022/04/07 11:22:57;;;;;;;1999.90;999.90;;;16.00;73.40;;;;;;5026696;28;20033;-84
2022/04/07 11:25:30;;;;;;;1999.90;999.90;;;16.10;73.40;;;;;;5030004;28;20038;-85
2022/04/07 11:28:17;;;;;;;1999.90;999.90;;;16.10;73.20;;;;;;5027949;28;20056;-85
2022/04/07 11:30:53;;;;;;;1999.90;999.90;;;16.20;74.00;;;;;;5019034;28;20565;-84
2022/04/07 11:33:29;;;;;;;1999.90;999.90;;;16.20;73.10;;;;;;5004536;28;20033;-85
2022/04/07 11:36:03;;;;;;;1999.90;999.90;;;16.20;73.10;;;;;;5023882;28;20029;-86
2022/04/07 11:38:30;;;;;;;1999.90;999.90;;;16.20;73.10;;;;;;5026893;28;20033;-87
2022/04/07 11:41:06;;;;;;;1999.90;999.90;;;16.20;73.20;;;;;;5028199;28;20026;-87
2022/04/07 11:43:34;;;;;;;1999.90;999.90;;;16.10;73.20;;;;;;5025272;28;20029;-87
2022/04/07 11:46:02;;;;;;;1999.90;999.90;;;16.10;73.20;;;;;;5010764;28;20030;-89
2022/04/07 11:48:32;;;;;;;1999.90;999.90;;;16.10;73.30;;;;;;5007149;28;20025;-86
2022/04/07 11:51:02;;;;;;;1999.90;999.90;;;16.00;73.30;;;;;;5021036;28;20390;-87
2022/04/07 11:53:28;;;;;;;1999.90;999.90;;;16.00;73.40;;;;;;5012130;28;20049;-88
2022/04/07 11:55:54;;;;;;;1999.90;999.90;;;15.90;74.20;;;;;;4996456;28;20030;-88
2022/04/07 11:58:20;;;;;;;1999.90;999.90;;;15.90;73.40;;;;;;4981798;28;20054;-88
2022/04/07 12:00:47;;;;;;;1999.90;999.90;;;15.90;73.50;;;;;;5000934;28;20045;-88
2022/04/07 12:03:13;;;;;;;1999.90;999.90;;;16.00;73.50;;;;;;5029234;28;20029;-88
2022/04/07 12:05:40;;;;;;;1999.90;999.90;;;16.00;73.40;;;;;;4990867;28;20068;-87